Aegean Navigator — SWBI — position and weather

sailwx.info

Track history (hours):
 
Tides and Currents Weather Stations Pressure Air Temp Water Temp Dewpoint Dewpoint Depression Visibility Wind Speed Wind Dir Waves Ship Positions

Aegean Navigator

Last reported at 2017-Feb-25 06:30 UTC. Time now 2017-Feb-25 07:32 UTC.
Position N 51°56' E 004°12'.

Length 274 m; draft 9.4 m.

Type: Ship. MMSI: 240634000.

Date/timePositionNaut miles runAvg speedWind from/ knotsBaromVisibWave heightAir tempDewpointWater temp
2017-Feb-25 06:30N 51°56' E 004°12'0 0.0
2017-Feb-25 05:33N 51°56' E 004°12'0 0.0
2017-Feb-25 04:33N 51°56' E 004°12'0 0.0
2017-Feb-25 03:33N 51°56' E 004°12'0 0.0
2017-Feb-25 02:30N 51°56' E 004°12'0 0.0
2017-Feb-25 01:33N 51°56' E 004°12'0 0.0
2017-Feb-25 00:33N 51°56' E 004°12'0 0.0
2017-Feb-24 23:33N 51°56' E 004°12'0 0.0
2017-Feb-24 22:30N 51°56' E 004°12'0 0.0
2017-Feb-24 21:33N 51°56' E 004°12'0 0.0
2017-Feb-24 20:33N 51°56' E 004°12'0 0.0
2017-Feb-24 19:33N 51°56' E 004°12'0 0.0
2017-Feb-24 18:30N 51°56' E 004°12'0 0.0
2017-Feb-24 17:33N 51°56' E 004°12'0 0.0
2017-Feb-24 16:33N 51°56' E 004°12'0 0.0
2017-Feb-24 15:33N 51°56' E 004°12'0 0.0
2017-Feb-24 14:30N 51°56' E 004°12'0 0.0
2017-Feb-24 13:33N 51°56' E 004°12'0 0.2
2017-Feb-24 12:33N 51°56' E 004°12'5 5.2
2017-Feb-24 11:33N 51°59' E 004°05'1111.0
2017-Feb-24 10:33N 51°59' E 003°47'2 1.5
2017-Feb-24 09:33N 51°59' E 003°49'3 3.2
2017-Feb-24 08:34N 52°01' E 003°53'5 5.4
2017-Feb-24 07:33N 52°03' E 003°44'7 6.9
2017-Feb-24 06:33N 52°06' E 003°35'3 1.5
2017-Feb-24 04:30N 52°05' E 003°39'5 5.2
2017-Feb-24 03:33N 52°07' E 003°32'8 0.7
2017-Feb-23 15:32N 52°14' E 003°27'4 3.8
2017-Feb-23 14:34N 52°15' E 003°32'1 0.8
2017-Feb-23 13:33N 52°16' E 003°32'1 0.6
2017-Feb-23 12:32N 52°17' E 003°33'1 0.6
2017-Feb-23 11:33N 52°17' E 003°34'1 0.8
2017-Feb-23 10:33N 52°18' E 003°33'1 0.9
2017-Feb-23 09:33N 52°19' E 003°34'6 3.1
2017-Feb-23 07:32N 52°14' E 003°28'4 3.6
2017-Feb-23 06:33N 52°16' E 003°32'1 0.6
2017-Feb-23 05:06N 52°16' E 003°33'1 2.7
2017-Feb-23 04:33N 52°14' E 003°32'2 1.9
2017-Feb-23 03:33N 52°16' E 003°34'2 1.9
2017-Feb-23 02:33N 52°15' E 003°31'4 4.3
2017-Feb-23 01:33N 52°18' E 003°37'1 1.0
2017-Feb-23 00:33N 52°17' E 003°36'2 2.1
2017-Feb-22 23:33N 52°16' E 003°33'1 0.9
2017-Feb-22 22:33N 52°16' E 003°31'2 0.4
2017-Feb-22 18:30N 52°16' E 003°33'4 3.9
2017-Feb-22 17:32N 52°14' E 003°39'2 1.8
2017-Feb-22 16:33N 52°15' E 003°36'2 1.7
2017-Feb-22 15:34N 52°15' E 003°34'1 1.1
2017-Feb-22 14:33N 52°16' E 003°33'3 1.3
2017-Feb-22 12:33N 52°15' E 003°29'3 2.6
2017-Feb-22 11:23N 52°17' E 003°33'2 1.7
2017-Feb-22 10:27N 52°19' E 003°34'7 5.9
2017-Feb-22 09:14N 52°13' E 003°26'2 3.6
2017-Feb-22 08:33N 52°15' E 003°29'4 3.7
2017-Feb-22 07:32N 52°18' E 003°33'6 4.2
2017-Feb-22 06:08N 52°14' E 003°26'2 3.4
2017-Feb-22 05:27N 52°15' E 003°29'3 3.6
2017-Feb-22 04:33N 52°16' E 003°34'2 1.7
2017-Feb-22 03:33N 52°16' E 003°31'4 3.5
2017-Feb-22 02:29N 52°14' E 003°26'3 2.9
2017-Feb-22 01:33N 52°16' E 003°28'3 2.6
2017-Feb-22 00:33N 52°18' E 003°31'4 3.9
2017-Feb-21 23:33N 52°15' E 003°28'1 0.6
2017-Feb-21 22:29N 52°15' E 003°27'1 0.1
2017-Feb-21 15:32N 52°15' E 003°28'2 1.6
2017-Feb-21 14:21N 52°13' E 003°28'6 7.9
2017-Feb-21 13:33N 52°09' E 003°35'0 0.2
2017-Feb-21 11:33N 52°09' E 003°36'0 0.0
2017-Feb-21 10:33N 52°09' E 003°36'0 0.0
2017-Feb-21 09:33N 52°09' E 003°36'0 0.0
2017-Feb-21 08:33N 52°09' E 003°36'0 0.0
2017-Feb-21 07:24N 52°09' E 003°36'0 0.0
2017-Feb-21 01:15N 52°09' E 003°36'0 0.0
2017-Feb-21 00:33N 52°09' E 003°36'0 0.1
2017-Feb-20 23:30N 52°09' E 003°36'0 0.0
2017-Feb-20 22:33N 52°09' E 003°36'0 0.0
2017-Feb-20 21:33N 52°09' E 003°36'0 0.0
2017-Feb-20 20:15N 52°09' E 003°36'0 0.1
2017-Feb-20 19:33N 52°09' E 003°36'0 0.0
2017-Feb-20 18:30N 52°09' E 003°36'0 0.0
2017-Feb-20 17:27N 52°09' E 003°36'0 0.0
2017-Feb-20 16:33N 52°09' E 003°36'0 0.0
2017-Feb-20 15:33N 52°09' E 003°36'0 0.0
2017-Feb-20 14:30N 52°09' E 003°36'0 0.0
2017-Feb-20 13:33N 52°09' E 003°36'0 0.1
2017-Feb-20 12:33N 52°09' E 003°36'0 0.1
2017-Feb-20 11:21N 52°09' E 003°35'0 0.1
2017-Feb-20 10:15N 52°09' E 003°36'0 0.0
2017-Feb-20 09:21N 52°09' E 003°36'0 0.0
2017-Feb-20 08:24N 52°09' E 003°35'0 0.0
2017-Feb-20 07:18N 52°09' E 003°36'0 0.0
2017-Feb-20 06:24N 52°09' E 003°35'0 0.0
2017-Feb-20 05:30N 52°09' E 003°35'0 0.1
2017-Feb-20 04:33N 52°09' E 003°36'0 0.0
2017-Feb-20 01:30N 52°09' E 003°35'0 0.0
2017-Feb-20 00:30N 52°09' E 003°35'0 0.1
2017-Feb-19 23:24N 52°09' E 003°36'0 0.0
2017-Feb-19 22:33N 52°09' E 003°36'0 0.0
2017-Feb-19 21:33N 52°09' E 003°35'0 0.0
2017-Feb-19 20:27N 52°09' E 003°35'0 0.0
2017-Feb-19 19:33N 52°09' E 003°35'0 0.0
2017-Feb-19 18:33N 52°09' E 003°36'0 0.0
2017-Feb-19 17:33N 52°09' E 003°36'0 0.0
2017-Feb-19 11:09N 52°09' E 003°36'0 0.1
2017-Feb-19 10:18N 52°09' E 003°35'0 0.0
2017-Feb-19 09:21N 52°09' E 003°35'0 0.0
2017-Feb-19 08:12N 52°09' E 003°35'0 0.1
2017-Feb-19 07:33N 52°09' E 003°35'0 0.0
2017-Feb-19 06:30N 52°09' E 003°35'0 0.0
2017-Feb-19 05:33N 52°09' E 003°35'0 0.0
2017-Feb-19 04:33N 52°09' E 003°35'0 0.1
2017-Feb-19 03:33N 52°09' E 003°35'0 0.1
2017-Feb-19 02:33N 52°09' E 003°35'0 0.0
2017-Feb-19 01:24N 52°09' E 003°35'0 0.2
2017-Feb-19 00:33N 52°09' E 003°35'0 0.0
2017-Feb-18 23:33N 52°09' E 003°35'0 0.0
2017-Feb-18 22:30N 52°09' E 003°35'0 0.0
2017-Feb-18 21:33N 52°09' E 003°35'0 0.0
2017-Feb-18 20:30N 52°09' E 003°35'0 0.0
2017-Feb-18 19:33N 52°09' E 003°35'0 0.0
2017-Feb-18 18:30N 52°09' E 003°35'0 0.0
2017-Feb-18 17:33N 52°09' E 003°35'0 0.0
2017-Feb-18 16:30N 52°09' E 003°35'0 0.2
2017-Feb-18 15:33N 52°09' E 003°35'0 0.1
2017-Feb-18 14:24N 52°09' E 003°35'0 0.0
2017-Feb-18 13:27N 52°09' E 003°35'0 0.1
2017-Feb-18 12:33N 52°09' E 003°35'0 0.2
2017-Feb-18 11:27N 52°09' E 003°35'0 0.1
2017-Feb-18 10:33N 52°09' E 003°35'0 0.0
2017-Feb-18 09:33N 52°09' E 003°35'0 0.0
2017-Feb-18 08:33N 52°09' E 003°35'0 0.0
2017-Feb-18 07:33N 52°09' E 003°35'0 0.0
2017-Feb-18 06:33N 52°09' E 003°35'0 0.0
2017-Feb-18 05:33N 52°09' E 003°35'0 0.1
2017-Feb-18 04:33N 52°09' E 003°35'0 0.2
2017-Feb-18 03:15N 52°09' E 003°35'0 0.0
2017-Feb-18 01:12N 52°09' E 003°35'0 0.0
2017-Feb-18 00:27N 52°09' E 003°35'0 0.0
2017-Feb-17 23:33N 52°09' E 003°35'0 0.1
2017-Feb-17 21:27N 52°09' E 003°35'0 0.0
2017-Feb-17 19:27N 52°09' E 003°35'0 0.0
2017-Feb-17 18:30N 52°09' E 003°35'0 0.0
2017-Feb-17 17:33N 52°09' E 003°35'0 0.1
2017-Feb-17 15:24N 52°09' E 003°35'0 0.0
2017-Feb-17 13:06N 52°09' E 003°35'0 0.0
2017-Feb-17 09:03N 52°09' E 003°36'0 0.0
2017-Feb-17 08:06N 52°09' E 003°36'0 0.0
2017-Feb-17 07:33N 52°09' E 003°36'0 0.0
2017-Feb-17 06:33N 52°09' E 003°35'0 0.0
2017-Feb-17 05:27N 52°09' E 003°36'0 0.0
2017-Feb-17 04:33N 52°09' E 003°36'0 0.0
2017-Feb-17 03:33N 52°09' E 003°36'0 0.1
2017-Feb-17 01:18N 52°09' E 003°35'0 0.1
2017-Feb-17 00:33N 52°09' E 003°35'0 0.0
2017-Feb-16 23:33N 52°09' E 003°35'0 0.1
2017-Feb-16 22:33N 52°09' E 003°35'0 0.2
2017-Feb-16 21:33N 52°09' E 003°35'0 0.0
2017-Feb-16 20:33N 52°09' E 003°35'0 0.0
2017-Feb-16 19:30N 52°09' E 003°35'0 0.0
2017-Feb-16 18:33N 52°09' E 003°35'0 0.0
2017-Feb-16 17:27N 52°09' E 003°35'0 0.0
2017-Feb-16 16:33N 52°09' E 003°35'0 0.0
2017-Feb-16 15:33N 52°09' E 003°36'0 0.1
2017-Feb-16 14:33N 52°09' E 003°35'6 6.4
2017-Feb-16 13:33N 52°05' E 003°44'1111.3
2017-Feb-16 12:34N 52°01' E 004°01'9 8.6
2017-Feb-16 11:34N 51°56' E 004°12'0 0.4
2017-Feb-16 10:33N 51°55' E 004°12'0 0.0
2017-Feb-16 09:33N 51°55' E 004°12'0 0.0
2017-Feb-16 08:33N 51°55' E 004°12'0 0.0
2017-Feb-16 07:33N 51°55' E 004°12'0 0.0
2017-Feb-16 06:33N 51°55' E 004°12'0 0.0
2017-Feb-16 05:33N 51°55' E 004°12'0 0.0
2017-Feb-16 04:33N 51°55' E 004°12'0 0.0
2017-Feb-16 03:33N 51°55' E 004°12'0 0.0
2017-Feb-16 02:33N 51°55' E 004°12'0 0.0
2017-Feb-16 01:30N 51°55' E 004°12'0 0.0
2017-Feb-16 00:33N 51°55' E 004°12'0 0.0
2017-Feb-15 23:33N 51°55' E 004°12'0 0.0
2017-Feb-15 22:33N 51°55' E 004°12'0 0.0
2017-Feb-15 21:33N 51°55' E 004°12'0 0.0
2017-Feb-15 20:33N 51°55' E 004°12'0 0.0
2017-Feb-15 19:33N 51°55' E 004°12'0 0.0
2017-Feb-15 18:33N 51°55' E 004°12'0 0.0
2017-Feb-15 17:33N 51°55' E 004°12'0 0.0
2017-Feb-15 16:33N 51°55' E 004°12'0 0.0
2017-Feb-15 15:33N 51°55' E 004°12'0 0.0
2017-Feb-15 14:33N 51°55' E 004°12'3 2.5
2017-Feb-15 13:33N 51°57' E 004°09'3 3.1
2017-Feb-15 12:33N 51°58' E 004°04'0 0.0
2017-Feb-15 11:32N 51°58' E 004°04'0 0.0
2017-Feb-15 10:32N 51°58' E 004°04'0 0.0
2017-Feb-15 09:32N 51°58' E 004°04'0 0.0
2017-Feb-15 08:32N 51°58' E 004°04'0 0.0
2017-Feb-15 07:32N 51°58' E 004°04'0 0.0
2017-Feb-15 06:32N 51°58' E 004°04'  
Track history (hours):
 
Tides and Currents Weather Stations Pressure Air Temp Water Temp Dewpoint Dewpoint Depression Visibility Wind Speed Wind Dir Waves Ship Positions

Aegean Navigator

Last reported at 2017-Feb-25 06:30 UTC. Time now 2017-Feb-25 07:32 UTC.
Position N 51°56' E 004°12'.

Length 274 m; draft 9.4 m.

Type: Ship. MMSI: 240634000.

Date/timePositionNaut miles runAvg speedWind from/ knotsBaromVisibWave heightAir tempDewpointWater temp
2017-Feb-25 06:30N 51°56' E 004°12'0 0.0
2017-Feb-25 05:33N 51°56' E 004°12'0 0.0
2017-Feb-25 04:33N 51°56' E 004°12'0 0.0
2017-Feb-25 03:33N 51°56' E 004°12'0 0.0
2017-Feb-25 02:30N 51°56' E 004°12'0 0.0
2017-Feb-25 01:33N 51°56' E 004°12'0 0.0
2017-Feb-25 00:33N 51°56' E 004°12'0 0.0
2017-Feb-24 23:33N 51°56' E 004°12'0 0.0
2017-Feb-24 22:30N 51°56' E 004°12'0 0.0
2017-Feb-24 21:33N 51°56' E 004°12'0 0.0
2017-Feb-24 20:33N 51°56' E 004°12'0 0.0
2017-Feb-24 19:33N 51°56' E 004°12'0 0.0
2017-Feb-24 18:30N 51°56' E 004°12'0 0.0
2017-Feb-24 17:33N 51°56' E 004°12'0 0.0
2017-Feb-24 16:33N 51°56' E 004°12'0 0.0
2017-Feb-24 15:33N 51°56' E 004°12'0 0.0
2017-Feb-24 14:30N 51°56' E 004°12'0 0.0
2017-Feb-24 13:33N 51°56' E 004°12'0 0.2
2017-Feb-24 12:33N 51°56' E 004°12'5 5.2
2017-Feb-24 11:33N 51°59' E 004°05'1111.0
2017-Feb-24 10:33N 51°59' E 003°47'2 1.5
2017-Feb-24 09:33N 51°59' E 003°49'3 3.2
2017-Feb-24 08:34N 52°01' E 003°53'5 5.4
2017-Feb-24 07:33N 52°03' E 003°44'7 6.9
2017-Feb-24 06:33N 52°06' E 003°35'3 1.5
2017-Feb-24 04:30N 52°05' E 003°39'5 5.2
2017-Feb-24 03:33N 52°07' E 003°32'8 0.7
2017-Feb-23 15:32N 52°14' E 003°27'4 3.8
2017-Feb-23 14:34N 52°15' E 003°32'1 0.8
2017-Feb-23 13:33N 52°16' E 003°32'1 0.6
2017-Feb-23 12:32N 52°17' E 003°33'1 0.6
2017-Feb-23 11:33N 52°17' E 003°34'1 0.8
2017-Feb-23 10:33N 52°18' E 003°33'1 0.9
2017-Feb-23 09:33N 52°19' E 003°34'6 3.1
2017-Feb-23 07:32N 52°14' E 003°28'4 3.6
2017-Feb-23 06:33N 52°16' E 003°32'1 0.6
2017-Feb-23 05:06N 52°16' E 003°33'1 2.7
2017-Feb-23 04:33N 52°14' E 003°32'2 1.9
2017-Feb-23 03:33N 52°16' E 003°34'2 1.9
2017-Feb-23 02:33N 52°15' E 003°31'4 4.3
2017-Feb-23 01:33N 52°18' E 003°37'1 1.0
2017-Feb-23 00:33N 52°17' E 003°36'2 2.1
2017-Feb-22 23:33N 52°16' E 003°33'1 0.9
2017-Feb-22 22:33N 52°16' E 003°31'2 0.4
2017-Feb-22 18:30N 52°16' E 003°33'4 3.9
2017-Feb-22 17:32N 52°14' E 003°39'2 1.8
2017-Feb-22 16:33N 52°15' E 003°36'2 1.7
2017-Feb-22 15:34N 52°15' E 003°34'1 1.1
2017-Feb-22 14:33N 52°16' E 003°33'3 1.3
2017-Feb-22 12:33N 52°15' E 003°29'3 2.6
2017-Feb-22 11:23N 52°17' E 003°33'2 1.7
2017-Feb-22 10:27N 52°19' E 003°34'7 5.9
2017-Feb-22 09:14N 52°13' E 003°26'2 3.6
2017-Feb-22 08:33N 52°15' E 003°29'4 3.7
2017-Feb-22 07:32N 52°18' E 003°33'6 4.2
2017-Feb-22 06:08N 52°14' E 003°26'2 3.4
2017-Feb-22 05:27N 52°15' E 003°29'3 3.6
2017-Feb-22 04:33N 52°16' E 003°34'2 1.7
2017-Feb-22 03:33N 52°16' E 003°31'4 3.5
2017-Feb-22 02:29N 52°14' E 003°26'3 2.9
2017-Feb-22 01:33N 52°16' E 003°28'3 2.6
2017-Feb-22 00:33N 52°18' E 003°31'4 3.9
2017-Feb-21 23:33N 52°15' E 003°28'1 0.6
2017-Feb-21 22:29N 52°15' E 003°27'1 0.1
2017-Feb-21 15:32N 52°15' E 003°28'2 1.6
2017-Feb-21 14:21N 52°13' E 003°28'6 7.9
2017-Feb-21 13:33N 52°09' E 003°35'0 0.2
2017-Feb-21 11:33N 52°09' E 003°36'0 0.0
2017-Feb-21 10:33N 52°09' E 003°36'0 0.0
2017-Feb-21 09:33N 52°09' E 003°36'0 0.0
2017-Feb-21 08:33N 52°09' E 003°36'0 0.0
2017-Feb-21 07:24N 52°09' E 003°36'0 0.0
2017-Feb-21 01:15N 52°09' E 003°36'0 0.0
2017-Feb-21 00:33N 52°09' E 003°36'0 0.1
2017-Feb-20 23:30N 52°09' E 003°36'0 0.0
2017-Feb-20 22:33N 52°09' E 003°36'0 0.0
2017-Feb-20 21:33N 52°09' E 003°36'0 0.0
2017-Feb-20 20:15N 52°09' E 003°36'0 0.1
2017-Feb-20 19:33N 52°09' E 003°36'0 0.0
2017-Feb-20 18:30N 52°09' E 003°36'0 0.0
2017-Feb-20 17:27N 52°09' E 003°36'0 0.0
2017-Feb-20 16:33N 52°09' E 003°36'0 0.0
2017-Feb-20 15:33N 52°09' E 003°36'0 0.0
2017-Feb-20 14:30N 52°09' E 003°36'0 0.0
2017-Feb-20 13:33N 52°09' E 003°36'0 0.1
2017-Feb-20 12:33N 52°09' E 003°36'0 0.1
2017-Feb-20 11:21N 52°09' E 003°35'0 0.1
2017-Feb-20 10:15N 52°09' E 003°36'0 0.0
2017-Feb-20 09:21N 52°09' E 003°36'0 0.0
2017-Feb-20 08:24N 52°09' E 003°35'0 0.0
2017-Feb-20 07:18N 52°09' E 003°36'0 0.0
2017-Feb-20 06:24N 52°09' E 003°35'0 0.0
2017-Feb-20 05:30N 52°09' E 003°35'0 0.1
2017-Feb-20 04:33N 52°09' E 003°36'0 0.0
2017-Feb-20 01:30N 52°09' E 003°35'0 0.0
2017-Feb-20 00:30N 52°09' E 003°35'0 0.1
2017-Feb-19 23:24N 52°09' E 003°36'0 0.0
2017-Feb-19 22:33N 52°09' E 003°36'0 0.0
2017-Feb-19 21:33N 52°09' E 003°35'0 0.0
2017-Feb-19 20:27N 52°09' E 003°35'0 0.0
2017-Feb-19 19:33N 52°09' E 003°35'0 0.0
2017-Feb-19 18:33N 52°09' E 003°36'0 0.0
2017-Feb-19 17:33N 52°09' E 003°36'0 0.0
2017-Feb-19 11:09N 52°09' E 003°36'0 0.1
2017-Feb-19 10:18N 52°09' E 003°35'0 0.0
2017-Feb-19 09:21N 52°09' E 003°35'0 0.0
2017-Feb-19 08:12N 52°09' E 003°35'0 0.1
2017-Feb-19 07:33N 52°09' E 003°35'0 0.0
2017-Feb-19 06:30N 52°09' E 003°35'0 0.0
2017-Feb-19 05:33N 52°09' E 003°35'0 0.0
2017-Feb-19 04:33N 52°09' E 003°35'0 0.1
2017-Feb-19 03:33N 52°09' E 003°35'0 0.1
2017-Feb-19 02:33N 52°09' E 003°35'0 0.0
2017-Feb-19 01:24N 52°09' E 003°35'0 0.2
2017-Feb-19 00:33N 52°09' E 003°35'0 0.0
2017-Feb-18 23:33N 52°09' E 003°35'0 0.0
2017-Feb-18 22:30N 52°09' E 003°35'0 0.0
2017-Feb-18 21:33N 52°09' E 003°35'0 0.0
2017-Feb-18 20:30N 52°09' E 003°35'0 0.0
2017-Feb-18 19:33N 52°09' E 003°35'0 0.0
2017-Feb-18 18:30N 52°09' E 003°35'0 0.0
2017-Feb-18 17:33N 52°09' E 003°35'0 0.0
2017-Feb-18 16:30N 52°09' E 003°35'0 0.2
2017-Feb-18 15:33N 52°09' E 003°35'0 0.1
2017-Feb-18 14:24N 52°09' E 003°35'0 0.0
2017-Feb-18 13:27N 52°09' E 003°35'0 0.1
2017-Feb-18 12:33N 52°09' E 003°35'0 0.2
2017-Feb-18 11:27N 52°09' E 003°35'0 0.1
2017-Feb-18 10:33N 52°09' E 003°35'0 0.0
2017-Feb-18 09:33N 52°09' E 003°35'0 0.0
2017-Feb-18 08:33N 52°09' E 003°35'0 0.0
2017-Feb-18 07:33N 52°09' E 003°35'0 0.0
2017-Feb-18 06:33N 52°09' E 003°35'0 0.0
2017-Feb-18 05:33N 52°09' E 003°35'0 0.1
2017-Feb-18 04:33N 52°09' E 003°35'0 0.2
2017-Feb-18 03:15N 52°09' E 003°35'0 0.0
2017-Feb-18 01:12N 52°09' E 003°35'0 0.0
2017-Feb-18 00:27N 52°09' E 003°35'0 0.0
2017-Feb-17 23:33N 52°09' E 003°35'0 0.1
2017-Feb-17 21:27N 52°09' E 003°35'0 0.0
2017-Feb-17 19:27N 52°09' E 003°35'0 0.0
2017-Feb-17 18:30N 52°09' E 003°35'0 0.0
2017-Feb-17 17:33N 52°09' E 003°35'0 0.1
2017-Feb-17 15:24N 52°09' E 003°35'0 0.0
2017-Feb-17 13:06N 52°09' E 003°35'0 0.0
2017-Feb-17 09:03N 52°09' E 003°36'0 0.0
2017-Feb-17 08:06N 52°09' E 003°36'0 0.0
2017-Feb-17 07:33N 52°09' E 003°36'0 0.0
2017-Feb-17 06:33N 52°09' E 003°35'0 0.0
2017-Feb-17 05:27N 52°09' E 003°36'0 0.0
2017-Feb-17 04:33N 52°09' E 003°36'0 0.0
2017-Feb-17 03:33N 52°09' E 003°36'0 0.1
2017-Feb-17 01:18N 52°09' E 003°35'0 0.1
2017-Feb-17 00:33N 52°09' E 003°35'0 0.0
2017-Feb-16 23:33N 52°09' E 003°35'0 0.1
2017-Feb-16 22:33N 52°09' E 003°35'0 0.2
2017-Feb-16 21:33N 52°09' E 003°35'0 0.0
2017-Feb-16 20:33N 52°09' E 003°35'0 0.0
2017-Feb-16 19:30N 52°09' E 003°35'0 0.0
2017-Feb-16 18:33N 52°09' E 003°35'0 0.0
2017-Feb-16 17:27N 52°09' E 003°35'0 0.0
2017-Feb-16 16:33N 52°09' E 003°35'0 0.0
2017-Feb-16 15:33N 52°09' E 003°36'0 0.1
2017-Feb-16 14:33N 52°09' E 003°35'6 6.4
2017-Feb-16 13:33N 52°05' E 003°44'1111.3
2017-Feb-16 12:34N 52°01' E 004°01'9 8.6
2017-Feb-16 11:34N 51°56' E 004°12'0 0.4
2017-Feb-16 10:33N 51°55' E 004°12'0 0.0
2017-Feb-16 09:33N 51°55' E 004°12'0 0.0
2017-Feb-16 08:33N 51°55' E 004°12'0 0.0
2017-Feb-16 07:33N 51°55' E 004°12'0 0.0
2017-Feb-16 06:33N 51°55' E 004°12'0 0.0
2017-Feb-16 05:33N 51°55' E 004°12'0 0.0
2017-Feb-16 04:33N 51°55' E 004°12'0 0.0
2017-Feb-16 03:33N 51°55' E 004°12'0 0.0
2017-Feb-16 02:33N 51°55' E 004°12'0 0.0
2017-Feb-16 01:30N 51°55' E 004°12'0 0.0
2017-Feb-16 00:33N 51°55' E 004°12'0 0.0
2017-Feb-15 23:33N 51°55' E 004°12'0 0.0
2017-Feb-15 22:33N 51°55' E 004°12'0 0.0
2017-Feb-15 21:33N 51°55' E 004°12'0 0.0
2017-Feb-15 20:33N 51°55' E 004°12'0 0.0
2017-Feb-15 19:33N 51°55' E 004°12'0 0.0
2017-Feb-15 18:33N 51°55' E 004°12'0 0.0
2017-Feb-15 17:33N 51°55' E 004°12'0 0.0
2017-Feb-15 16:33N 51°55' E 004°12'0 0.0
2017-Feb-15 15:33N 51°55' E 004°12'0 0.0
2017-Feb-15 14:33N 51°55' E 004°12'3 2.5
2017-Feb-15 13:33N 51°57' E 004°09'3 3.1
2017-Feb-15 12:33N 51°58' E 004°04'0 0.0
2017-Feb-15 11:32N 51°58' E 004°04'0 0.0
2017-Feb-15 10:32N 51°58' E 004°04'0 0.0
2017-Feb-15 09:32N 51°58' E 004°04'0 0.0
2017-Feb-15 08:32N 51°58' E 004°04'0 0.0
2017-Feb-15 07:32N 51°58' E 004°04'0 0.0
2017-Feb-15 06:32N 51°58' E 004°04'  

Dump ship's entire track history